sensor_id;sensor_type;location;lat;lon;timestamp;P1;durP1;ratioP1;P2;durP2;ratioP2
17310;SDS011;8773;43.300;0.394;2022-09-01T00:00:43;7.30;;;6.70;;
17310;SDS011;8773;43.300;0.394;2022-09-01T00:03:16;7.93;;;7.10;;
17310;SDS011;8773;43.300;0.394;2022-09-01T00:05:45;8.48;;;6.75;;
17310;SDS011;8773;43.300;0.394;2022-09-01T00:08:15;7.85;;;7.05;;
17310;SDS011;8773;43.300;0.394;2022-09-01T00:10:44;8.45;;;6.90;;
17310;SDS011;8773;43.300;0.394;2022-09-01T00:13:12;7.78;;;7.00;;
17310;SDS011;8773;43.300;0.394;2022-09-01T00:15:40;10.60;;;6.90;;
17310;SDS011;8773;43.300;0.394;2022-09-01T00:18:09;7.28;;;6.70;;
17310;SDS011;8773;43.300;0.394;2022-09-01T00:20:38;7.43;;;6.78;;
17310;SDS011;8773;43.300;0.394;2022-09-01T00:23:06;8.07;;;7.30;;
17310;SDS011;8773;43.300;0.394;2022-09-01T00:25:34;7.95;;;7.15;;
17310;SDS011;8773;43.300;0.394;2022-09-01T00:28:03;8.65;;;7.15;;
17310;SDS011;8773;43.300;0.394;2022-09-01T00:30:31;7.80;;;7.10;;
17310;SDS011;8773;43.300;0.394;2022-09-01T00:32:59;7.85;;;7.05;;
17310;SDS011;8773;43.300;0.394;2022-09-01T00:35:27;8.20;;;7.40;;
17310;SDS011;8773;43.300;0.394;2022-09-01T00:37:57;7.45;;;6.82;;
17310;SDS011;8773;43.300;0.394;2022-09-01T00:40:26;8.32;;;7.22;;
17310;SDS011;8773;43.300;0.394;2022-09-01T00:42:54;8.18;;;7.45;;
17310;SDS011;8773;43.300;0.394;2022-09-01T00:45:22;8.82;;;6.75;;
17310;SDS011;8773;43.300;0.394;2022-09-01T00:47:50;8.20;;;7.35;;
17310;SDS011;8773;43.300;0.394;2022-09-01T00:50:19;7.57;;;6.70;;
17310;SDS011;8773;43.300;0.394;2022-09-01T00:52:48;8.00;;;7.30;;
17310;SDS011;8773;43.300;0.394;2022-09-01T00:55:22;9.32;;;7.55;;
17310;SDS011;8773;43.300;0.394;2022-09-01T00:57:54;8.40;;;7.50;;
17310;SDS011;8773;43.300;0.394;2022-09-01T01:00:24;8.45;;;7.57;;
17310;SDS011;8773;43.300;0.394;2022-09-01T01:02:55;8.50;;;7.80;;
17310;SDS011;8773;43.300;0.394;2022-09-01T01:05:24;7.90;;;7.07;;
17310;SDS011;8773;43.300;0.394;2022-09-01T01:07:58;8.63;;;6.95;;
17310;SDS011;8773;43.300;0.394;2022-09-01T01:10:29;7.53;;;6.82;;
17310;SDS011;8773;43.300;0.394;2022-09-01T01:13:01;8.55;;;7.15;;
17310;SDS011;8773;43.300;0.394;2022-09-01T01:15:34;7.85;;;6.90;;
17310;SDS011;8773;43.300;0.394;2022-09-01T01:18:03;8.85;;;7.63;;
17310;SDS011;8773;43.300;0.394;2022-09-01T01:20:33;8.65;;;6.97;;
17310;SDS011;8773;43.300;0.394;2022-09-01T01:23:23;8.23;;;7.50;;
17310;SDS011;8773;43.300;0.394;2022-09-01T01:26:04;7.78;;;7.05;;
17310;SDS011;8773;43.300;0.394;2022-09-01T01:28:38;8.35;;;7.53;;
17310;SDS011;8773;43.300;0.394;2022-09-01T01:31:11;9.63;;;7.53;;
17310;SDS011;8773;43.300;0.394;2022-09-01T01:33:42;7.85;;;7.25;;
17310;SDS011;8773;43.300;0.394;2022-09-01T01:36:12;9.07;;;7.55;;
17310;SDS011;8773;43.300;0.394;2022-09-01T01:38:43;9.57;;;7.90;;
17310;SDS011;8773;43.300;0.394;2022-09-01T01:41:15;7.78;;;7.18;;
17310;SDS011;8773;43.300;0.394;2022-09-01T01:43:45;7.97;;;7.25;;
17310;SDS011;8773;43.300;0.394;2022-09-01T01:46:13;7.88;;;7.18;;
17310;SDS011;8773;43.300;0.394;2022-09-01T01:48:43;8.10;;;7.35;;
17310;SDS011;8773;43.300;0.394;2022-09-01T01:51:12;10.32;;;7.88;;
17310;SDS011;8773;43.300;0.394;2022-09-01T01:53:40;8.52;;;7.60;;
17310;SDS011;8773;43.300;0.394;2022-09-01T01:56:08;8.57;;;7.68;;
17310;SDS011;8773;43.300;0.394;2022-09-01T01:58:38;12.07;;;8.40;;
17310;SDS011;8773;43.300;0.394;2022-09-01T02:01:06;8.65;;;7.72;;
17310;SDS011;8773;43.300;0.394;2022-09-01T02:03:36;8.88;;;8.05;;
17310;SDS011;8773;43.300;0.394;2022-09-01T02:06:05;11.63;;;8.43;;
17310;SDS011;8773;43.300;0.394;2022-09-01T02:08:38;8.57;;;7.65;;
17310;SDS011;8773;43.300;0.394;2022-09-01T02:11:07;8.40;;;7.63;;
17310;SDS011;8773;43.300;0.394;2022-09-01T02:13:39;8.60;;;7.90;;
17310;SDS011;8773;43.300;0.394;2022-09-01T02:16:08;8.27;;;7.40;;
17310;SDS011;8773;43.300;0.394;2022-09-01T02:18:39;8.32;;;7.53;;
17310;SDS011;8773;43.300;0.394;2022-09-01T02:21:14;7.97;;;7.18;;
17310;SDS011;8773;43.300;0.394;2022-09-01T02:23:45;8.73;;;7.85;;
17310;SDS011;8773;43.300;0.394;2022-09-01T02:26:15;8.05;;;7.25;;
17310;SDS011;8773;43.300;0.394;2022-09-01T02:28:50;8.02;;;7.07;;
17310;SDS011;8773;43.300;0.394;2022-09-01T02:31:21;7.70;;;7.10;;
17310;SDS011;8773;43.300;0.394;2022-09-01T02:33:51;8.18;;;7.47;;
17310;SDS011;8773;43.300;0.394;2022-09-01T02:36:20;8.40;;;7.55;;
17310;SDS011;8773;43.300;0.394;2022-09-01T02:38:53;9.00;;;7.97;;
17310;SDS011;8773;43.300;0.394;2022-09-01T02:41:22;8.13;;;7.32;;
17310;SDS011;8773;43.300;0.394;2022-09-01T02:43:56;8.35;;;7.63;;
17310;SDS011;8773;43.300;0.394;2022-09-01T02:46:28;9.10;;;7.43;;
17310;SDS011;8773;43.300;0.394;2022-09-01T02:48:58;9.70;;;8.48;;
17310;SDS011;8773;43.300;0.394;2022-09-01T02:51:32;9.20;;;8.30;;
17310;SDS011;8773;43.300;0.394;2022-09-01T02:54:00;8.60;;;7.75;;
17310;SDS011;8773;43.300;0.394;2022-09-01T02:56:31;10.60;;;8.45;;
17310;SDS011;8773;43.300;0.394;2022-09-01T02:59:00;8.80;;;8.00;;
17310;SDS011;8773;43.300;0.394;2022-09-01T03:01:29;10.35;;;8.48;;
17310;SDS011;8773;43.300;0.394;2022-09-01T03:04:00;10.73;;;8.27;;
17310;SDS011;8773;43.300;0.394;2022-09-01T03:06:31;11.27;;;8.55;;
17310;SDS011;8773;43.300;0.394;2022-09-01T03:09:03;9.52;;;8.52;;
17310;SDS011;8773;43.300;0.394;2022-09-01T03:11:33;10.90;;;8.52;;
17310;SDS011;8773;43.300;0.394;2022-09-01T03:14:06;9.50;;;8.52;;
17310;SDS011;8773;43.300;0.394;2022-09-01T03:16:34;8.80;;;7.40;;
17310;SDS011;8773;43.300;0.394;2022-09-01T03:19:04;8.63;;;7.93;;
17310;SDS011;8773;43.300;0.394;2022-09-01T03:21:34;9.07;;;8.25;;
17310;SDS011;8773;43.300;0.394;2022-09-01T03:24:06;11.35;;;9.10;;
17310;SDS011;8773;43.300;0.394;2022-09-01T03:26:37;10.75;;;8.48;;
17310;SDS011;8773;43.300;0.394;2022-09-01T03:29:07;9.93;;;8.93;;
17310;SDS011;8773;43.300;0.394;2022-09-01T03:31:35;10.52;;;9.40;;
17310;SDS011;8773;43.300;0.394;2022-09-01T03:34:04;10.02;;;9.10;;
17310;SDS011;8773;43.300;0.394;2022-09-01T03:36:36;9.13;;;8.43;;
17310;SDS011;8773;43.300;0.394;2022-09-01T03:39:05;10.15;;;8.77;;
17310;SDS011;8773;43.300;0.394;2022-09-01T03:41:44;9.70;;;8.70;;
17310;SDS011;8773;43.300;0.394;2022-09-01T03:44:14;9.95;;;9.10;;
17310;SDS011;8773;43.300;0.394;2022-09-01T03:46:43;9.68;;;8.77;;
17310;SDS011;8773;43.300;0.394;2022-09-01T03:49:11;10.60;;;9.50;;
17310;SDS011;8773;43.300;0.394;2022-09-01T03:51:42;10.40;;;9.35;;
17310;SDS011;8773;43.300;0.394;2022-09-01T03:54:11;10.27;;;8.70;;
17310;SDS011;8773;43.300;0.394;2022-09-01T03:56:40;10.93;;;9.50;;
17310;SDS011;8773;43.300;0.394;2022-09-01T03:59:10;10.13;;;8.95;;
17310;SDS011;8773;43.300;0.394;2022-09-01T04:01:44;9.80;;;8.80;;
17310;SDS011;8773;43.300;0.394;2022-09-01T04:04:12;9.57;;;8.60;;
17310;SDS011;8773;43.300;0.394;2022-09-01T04:06:41;9.88;;;8.88;;
17310;SDS011;8773;43.300;0.394;2022-09-01T04:09:11;9.80;;;9.02;;
17310;SDS011;8773;43.300;0.394;2022-09-01T04:11:39;9.93;;;9.13;;
17310;SDS011;8773;43.300;0.394;2022-09-01T04:14:11;11.55;;;9.63;;
17310;SDS011;8773;43.300;0.394;2022-09-01T04:16:39;9.93;;;9.00;;
17310;SDS011;8773;43.300;0.394;2022-09-01T04:19:26;9.75;;;8.85;;
17310;SDS011;8773;43.300;0.394;2022-09-01T04:21:57;10.13;;;9.15;;
17310;SDS011;8773;43.300;0.394;2022-09-01T04:24:27;12.07;;;9.00;;
17310;SDS011;8773;43.300;0.394;2022-09-01T04:26:57;14.55;;;10.05;;
17310;SDS011;8773;43.300;0.394;2022-09-01T04:29:27;10.20;;;9.18;;
17310;SDS011;8773;43.300;0.394;2022-09-01T04:31:58;11.93;;;10.68;;
17310;SDS011;8773;43.300;0.394;2022-09-01T04:34:31;14.10;;;10.13;;
17310;SDS011;8773;43.300;0.394;2022-09-01T04:37:08;11.35;;;10.32;;
17310;SDS011;8773;43.300;0.394;2022-09-01T04:39:38;11.82;;;10.63;;
17310;SDS011;8773;43.300;0.394;2022-09-01T04:42:17;13.95;;;9.65;;
17310;SDS011;8773;43.300;0.394;2022-09-01T04:44:48;10.77;;;9.73;;
17310;SDS011;8773;43.300;0.394;2022-09-01T04:47:17;11.68;;;10.38;;
17310;SDS011;8773;43.300;0.394;2022-09-01T04:50:03;11.88;;;10.68;;
17310;SDS011;8773;43.300;0.394;2022-09-01T04:52:40;11.05;;;9.95;;
17310;SDS011;8773;43.300;0.394;2022-09-01T04:55:09;11.52;;;10.13;;
17310;SDS011;8773;43.300;0.394;2022-09-01T04:57:43;10.73;;;9.82;;
17310;SDS011;8773;43.300;0.394;2022-09-01T05:00:15;10.48;;;9.40;;
17310;SDS011;8773;43.300;0.394;2022-09-01T05:02:49;10.38;;;9.38;;
17310;SDS011;8773;43.300;0.394;2022-09-01T05:05:20;9.77;;;8.95;;
17310;SDS011;8773;43.300;0.394;2022-09-01T05:07:49;12.52;;;10.23;;
17310;SDS011;8773;43.300;0.394;2022-09-01T05:10:21;9.77;;;8.90;;
17310;SDS011;8773;43.300;0.394;2022-09-01T05:12:55;9.45;;;8.65;;
17310;SDS011;8773;43.300;0.394;2022-09-01T05:15:23;10.13;;;9.13;;
17310;SDS011;8773;43.300;0.394;2022-09-01T05:17:51;10.43;;;9.43;;
17310;SDS011;8773;43.300;0.394;2022-09-01T05:20:21;11.20;;;10.00;;
17310;SDS011;8773;43.300;0.394;2022-09-01T05:22:50;11.75;;;10.43;;
17310;SDS011;8773;43.300;0.394;2022-09-01T05:25:21;11.10;;;10.10;;
17310;SDS011;8773;43.300;0.394;2022-09-01T05:27:51;11.85;;;10.45;;
17310;SDS011;8773;43.300;0.394;2022-09-01T05:30:19;10.55;;;9.50;;
17310;SDS011;8773;43.300;0.394;2022-09-01T05:32:47;11.65;;;9.88;;
17310;SDS011;8773;43.300;0.394;2022-09-01T05:35:16;9.65;;;8.82;;
17310;SDS011;8773;43.300;0.394;2022-09-01T05:37:45;11.43;;;9.13;;
17310;SDS011;8773;43.300;0.394;2022-09-01T05:40:17;11.73;;;9.52;;
17310;SDS011;8773;43.300;0.394;2022-09-01T05:42:45;10.73;;;9.63;;
17310;SDS011;8773;43.300;0.394;2022-09-01T05:45:13;10.38;;;9.40;;
17310;SDS011;8773;43.300;0.394;2022-09-01T05:47:48;10.40;;;9.52;;
17310;SDS011;8773;43.300;0.394;2022-09-01T05:50:17;10.60;;;9.65;;
17310;SDS011;8773;43.300;0.394;2022-09-01T05:52:48;9.57;;;8.68;;
17310;SDS011;8773;43.300;0.394;2022-09-01T05:55:16;9.80;;;8.90;;
17310;SDS011;8773;43.300;0.394;2022-09-01T05:57:44;9.93;;;9.13;;
17310;SDS011;8773;43.300;0.394;2022-09-01T06:00:14;10.07;;;9.20;;
17310;SDS011;8773;43.300;0.394;2022-09-01T06:02:43;9.85;;;8.95;;
17310;SDS011;8773;43.300;0.394;2022-09-01T06:05:12;10.52;;;8.70;;
17310;SDS011;8773;43.300;0.394;2022-09-01T06:07:40;10.10;;;9.10;;
17310;SDS011;8773;43.300;0.394;2022-09-01T06:10:11;9.90;;;9.07;;
17310;SDS011;8773;43.300;0.394;2022-09-01T06:12:40;10.25;;;9.45;;
17310;SDS011;8773;43.300;0.394;2022-09-01T06:15:09;9.85;;;8.98;;
17310;SDS011;8773;43.300;0.394;2022-09-01T06:17:41;10.15;;;9.15;;
17310;SDS011;8773;43.300;0.394;2022-09-01T06:20:11;11.63;;;9.38;;
17310;SDS011;8773;43.300;0.394;2022-09-01T06:22:39;9.50;;;8.43;;
17310;SDS011;8773;43.300;0.394;2022-09-01T06:25:07;9.32;;;8.43;;
17310;SDS011;8773;43.300;0.394;2022-09-01T06:27:37;10.50;;;9.50;;
17310;SDS011;8773;43.300;0.394;2022-09-01T06:30:09;9.85;;;8.95;;
17310;SDS011;8773;43.300;0.394;2022-09-01T06:32:40;8.82;;;8.13;;
17310;SDS011;8773;43.300;0.394;2022-09-01T06:35:10;8.82;;;8.13;;
17310;SDS011;8773;43.300;0.394;2022-09-01T06:37:39;10.00;;;8.45;;
17310;SDS011;8773;43.300;0.394;2022-09-01T06:40:09;9.10;;;8.43;;
17310;SDS011;8773;43.300;0.394;2022-09-01T06:42:44;8.80;;;8.00;;
17310;SDS011;8773;43.300;0.394;2022-09-01T06:45:13;10.15;;;8.68;;
17310;SDS011;8773;43.300;0.394;2022-09-01T06:47:43;8.75;;;7.93;;
17310;SDS011;8773;43.300;0.394;2022-09-01T06:50:13;8.77;;;8.02;;
17310;SDS011;8773;43.300;0.394;2022-09-01T06:53:02;8.63;;;7.78;;
17310;SDS011;8773;43.300;0.394;2022-09-01T06:55:54;8.23;;;7.63;;
17310;SDS011;8773;43.300;0.394;2022-09-01T06:58:23;9.75;;;7.90;;
17310;SDS011;8773;43.300;0.394;2022-09-01T07:00:51;7.45;;;6.80;;
17310;SDS011;8773;43.300;0.394;2022-09-01T07:03:19;7.68;;;6.97;;
17310;SDS011;8773;43.300;0.394;2022-09-01T07:05:50;9.63;;;7.38;;
17310;SDS011;8773;43.300;0.394;2022-09-01T07:08:35;7.80;;;7.20;;
17310;SDS011;8773;43.300;0.394;2022-09-01T07:11:27;8.35;;;7.55;;
17310;SDS011;8773;43.300;0.394;2022-09-01T07:14:19;7.43;;;6.82;;
17310;SDS011;8773;43.300;0.394;2022-09-01T07:16:47;7.57;;;6.82;;
17310;SDS011;8773;43.300;0.394;2022-09-01T07:19:36;8.25;;;7.05;;
17310;SDS011;8773;43.300;0.394;2022-09-01T07:22:19;7.25;;;6.63;;
17310;SDS011;8773;43.300;0.394;2022-09-01T07:25:08;7.10;;;6.25;;
17310;SDS011;8773;43.300;0.394;2022-09-01T07:27:38;6.78;;;6.18;;
17310;SDS011;8773;43.300;0.394;2022-09-01T07:30:16;6.97;;;6.38;;
17310;SDS011;8773;43.300;0.394;2022-09-01T07:32:49;6.55;;;6.10;;
17310;SDS011;8773;43.300;0.394;2022-09-01T07:35:19;6.55;;;5.75;;
17310;SDS011;8773;43.300;0.394;2022-09-01T07:37:50;6.40;;;5.40;;
17310;SDS011;8773;43.300;0.394;2022-09-01T07:40:39;5.30;;;4.90;;
17310;SDS011;8773;43.300;0.394;2022-09-01T07:43:28;6.13;;;5.53;;
17310;SDS011;8773;43.300;0.394;2022-09-01T07:46:02;7.90;;;6.35;;
17310;SDS011;8773;43.300;0.394;2022-09-01T07:48:52;6.15;;;5.68;;
17310;SDS011;8773;43.300;0.394;2022-09-01T07:51:41;6.80;;;5.93;;
17310;SDS011;8773;43.300;0.394;2022-09-01T07:54:09;6.82;;;6.32;;
17310;SDS011;8773;43.300;0.394;2022-09-01T07:56:39;7.93;;;6.07;;
17310;SDS011;8773;43.300;0.394;2022-09-01T07:59:07;6.60;;;6.07;;
17310;SDS011;8773;43.300;0.394;2022-09-01T08:01:43;7.07;;;6.47;;
17310;SDS011;8773;43.300;0.394;2022-09-01T08:04:12;6.30;;;5.80;;
17310;SDS011;8773;43.300;0.394;2022-09-01T08:06:40;7.00;;;6.20;;
17310;SDS011;8773;43.300;0.394;2022-09-01T08:09:08;7.05;;;6.40;;
17310;SDS011;8773;43.300;0.394;2022-09-01T08:11:58;7.35;;;6.75;;
17310;SDS011;8773;43.300;0.394;2022-09-01T08:14:28;7.30;;;6.80;;
17310;SDS011;8773;43.300;0.394;2022-09-01T08:17:02;7.55;;;6.75;;
17310;SDS011;8773;43.300;0.394;2022-09-01T08:19:51;6.78;;;6.13;;
17310;SDS011;8773;43.300;0.394;2022-09-01T08:22:19;6.70;;;6.15;;
17310;SDS011;8773;43.300;0.394;2022-09-01T08:24:50;6.68;;;6.18;;
17310;SDS011;8773;43.300;0.394;2022-09-01T08:27:18;10.25;;;6.28;;
17310;SDS011;8773;43.300;0.394;2022-09-01T08:29:46;7.32;;;6.03;;
17310;SDS011;8773;43.300;0.394;2022-09-01T08:32:17;6.43;;;5.80;;
17310;SDS011;8773;43.300;0.394;2022-09-01T08:34:46;6.97;;;6.38;;
17310;SDS011;8773;43.300;0.394;2022-09-01T08:37:14;6.03;;;5.45;;
17310;SDS011;8773;43.300;0.394;2022-09-01T08:39:42;5.68;;;5.15;;
17310;SDS011;8773;43.300;0.394;2022-09-01T08:42:13;6.60;;;6.03;;
17310;SDS011;8773;43.300;0.394;2022-09-01T08:44:50;5.53;;;5.20;;
17310;SDS011;8773;43.300;0.394;2022-09-01T08:47:27;6.03;;;5.40;;
17310;SDS011;8773;43.300;0.394;2022-09-01T08:50:15;12.10;;;11.10;;
17310;SDS011;8773;43.300;0.394;2022-09-01T08:52:46;6.55;;;6.05;;
17310;SDS011;8773;43.300;0.394;2022-09-01T08:55:21;5.95;;;5.53;;
17310;SDS011;8773;43.300;0.394;2022-09-01T08:57:55;5.30;;;5.00;;
17310;SDS011;8773;43.300;0.394;2022-09-01T09:00:26;6.53;;;5.30;;
17310;SDS011;8773;43.300;0.394;2022-09-01T09:03:00;5.72;;;5.22;;
17310;SDS011;8773;43.300;0.394;2022-09-01T09:05:38;5.65;;;5.28;;
17310;SDS011;8773;43.300;0.394;2022-09-01T09:08:20;5.60;;;5.10;;
17310;SDS011;8773;43.300;0.394;2022-09-01T09:11:02;5.40;;;4.90;;
17310;SDS011;8773;43.300;0.394;2022-09-01T09:13:37;6.85;;;4.75;;
17310;SDS011;8773;43.300;0.394;2022-09-01T09:16:11;4.95;;;4.60;;
17310;SDS011;8773;43.300;0.394;2022-09-01T09:18:46;4.70;;;4.30;;
17310;SDS011;8773;43.300;0.394;2022-09-01T09:21:25;4.88;;;4.53;;
17310;SDS011;8773;43.300;0.394;2022-09-01T09:23:59;5.15;;;4.65;;
17310;SDS011;8773;43.300;0.394;2022-09-01T09:26:35;5.00;;;4.40;;
17310;SDS011;8773;43.300;0.394;2022-09-01T09:29:11;4.93;;;4.63;;
17310;SDS011;8773;43.300;0.394;2022-09-01T09:31:39;4.32;;;4.00;;
17310;SDS011;8773;43.300;0.394;2022-09-01T09:34:30;4.45;;;4.15;;
17310;SDS011;8773;43.300;0.394;2022-09-01T09:37:01;6.45;;;4.03;;
17310;SDS011;8773;43.300;0.394;2022-09-01T09:40:03;5.05;;;4.55;;
17310;SDS011;8773;43.300;0.394;2022-09-01T09:42:36;4.63;;;4.20;;
17310;SDS011;8773;43.300;0.394;2022-09-01T09:45:06;4.72;;;4.32;;
17310;SDS011;8773;43.300;0.394;2022-09-01T09:47:48;4.80;;;4.40;;
17310;SDS011;8773;43.300;0.394;2022-09-01T09:50:19;4.68;;;4.38;;
17310;SDS011;8773;43.300;0.394;2022-09-01T09:52:51;4.43;;;4.15;;
17310;SDS011;8773;43.300;0.394;2022-09-01T09:55:36;4.82;;;4.50;;
17310;SDS011;8773;43.300;0.394;2022-09-01T09:58:22;5.53;;;4.13;;
17310;SDS011;8773;43.300;0.394;2022-09-01T10:00:59;4.63;;;4.18;;
17310;SDS011;8773;43.300;0.394;2022-09-01T10:03:38;4.55;;;4.25;;
17310;SDS011;8773;43.300;0.394;2022-09-01T10:06:11;4.82;;;4.53;;
17310;SDS011;8773;43.300;0.394;2022-09-01T10:08:42;6.00;;;5.30;;
17310;SDS011;8773;43.300;0.394;2022-09-01T10:11:24;6.13;;;5.25;;
17310;SDS011;8773;43.300;0.394;2022-09-01T10:14:01;7.60;;;4.68;;
17310;SDS011;8773;43.300;0.394;2022-09-01T10:16:33;5.53;;;4.72;;
17310;SDS011;8773;43.300;0.394;2022-09-01T10:19:05;5.03;;;4.38;;
17310;SDS011;8773;43.300;0.394;2022-09-01T10:21:40;5.07;;;4.65;;
17310;SDS011;8773;43.300;0.394;2022-09-01T10:24:13;4.63;;;4.22;;
17310;SDS011;8773;43.300;0.394;2022-09-01T10:26:51;5.45;;;4.65;;
17310;SDS011;8773;43.300;0.394;2022-09-01T10:29:23;4.88;;;4.57;;
17310;SDS011;8773;43.300;0.394;2022-09-01T10:32:01;5.22;;;4.82;;
17310;SDS011;8773;43.300;0.394;2022-09-01T10:34:53;4.75;;;4.45;;
17310;SDS011;8773;43.300;0.394;2022-09-01T10:37:26;5.10;;;4.60;;
17310;SDS011;8773;43.300;0.394;2022-09-01T10:42:56;4.55;;;4.18;;
17310;SDS011;8773;43.300;0.394;2022-09-01T10:45:31;4.60;;;4.30;;
17310;SDS011;8773;43.300;0.394;2022-09-01T10:57:34;4.30;;;4.00;;
17310;SDS011;8773;43.300;0.394;2022-09-01T11:00:14;4.47;;;4.07;;
17310;SDS011;8773;43.300;0.394;2022-09-01T11:09:41;4.38;;;4.18;;
17310;SDS011;8773;43.300;0.394;2022-09-01T11:18:01;4.15;;;3.95;;
17310;SDS011;8773;43.300;0.394;2022-09-01T11:20:35;6.78;;;4.40;;
17310;SDS011;8773;43.300;0.394;2022-09-01T11:23:05;4.60;;;4.00;;
17310;SDS011;8773;43.300;0.394;2022-09-01T11:25:39;4.82;;;4.55;;
17310;SDS011;8773;43.300;0.394;2022-09-01T11:31:28;4.40;;;4.10;;
17310;SDS011;8773;43.300;0.394;2022-09-01T11:34:03;4.85;;;4.55;;
17310;SDS011;8773;43.300;0.394;2022-09-01T11:36:44;4.40;;;4.13;;
17310;SDS011;8773;43.300;0.394;2022-09-01T11:39:23;6.05;;;5.45;;
17310;SDS011;8773;43.300;0.394;2022-09-01T11:41:58;4.82;;;4.53;;
17310;SDS011;8773;43.300;0.394;2022-09-01T11:44:33;4.15;;;3.85;;
17310;SDS011;8773;43.300;0.394;2022-09-01T11:47:09;4.82;;;4.60;;
17310;SDS011;8773;43.300;0.394;2022-09-01T11:49:46;4.28;;;3.88;;
17310;SDS011;8773;43.300;0.394;2022-09-01T11:52:18;4.72;;;4.32;;
17310;SDS011;8773;43.300;0.394;2022-09-01T11:54:48;5.38;;;4.97;;
17310;SDS011;8773;43.300;0.394;2022-09-01T11:57:24;6.70;;;4.72;;
17310;SDS011;8773;43.300;0.394;2022-09-01T11:59:56;4.40;;;4.00;;
17310;SDS011;8773;43.300;0.394;2022-09-01T12:02:30;5.22;;;4.05;;
17310;SDS011;8773;43.300;0.394;2022-09-01T12:07:52;4.25;;;4.05;;
17310;SDS011;8773;43.300;0.394;2022-09-01T12:10:22;5.03;;;3.85;;
17310;SDS011;8773;43.300;0.394;2022-09-01T12:13:00;4.65;;;4.35;;
17310;SDS011;8773;43.300;0.394;2022-09-01T12:15:31;4.38;;;4.13;;
17310;SDS011;8773;43.300;0.394;2022-09-01T12:18:09;5.38;;;4.22;;
17310;SDS011;8773;43.300;0.394;2022-09-01T12:20:40;3.97;;;3.78;;
17310;SDS011;8773;43.300;0.394;2022-09-01T12:23:15;7.05;;;6.32;;
17310;SDS011;8773;43.300;0.394;2022-09-01T12:25:45;4.25;;;4.05;;
17310;SDS011;8773;43.300;0.394;2022-09-01T12:28:16;4.25;;;4.05;;
17310;SDS011;8773;43.300;0.394;2022-09-01T12:30:46;4.30;;;4.00;;
17310;SDS011;8773;43.300;0.394;2022-09-01T12:33:16;4.72;;;4.40;;
17310;SDS011;8773;43.300;0.394;2022-09-01T12:35:49;4.38;;;4.07;;
17310;SDS011;8773;43.300;0.394;2022-09-01T12:38:24;4.30;;;4.00;;
17310;SDS011;8773;43.300;0.394;2022-09-01T12:41:15;4.68;;;4.32;;
17310;SDS011;8773;43.300;0.394;2022-09-01T12:43:50;3.92;;;3.72;;
17310;SDS011;8773;43.300;0.394;2022-09-01T12:46:40;4.47;;;4.10;;
17310;SDS011;8773;43.300;0.394;2022-09-01T12:49:16;4.57;;;4.18;;
17310;SDS011;8773;43.300;0.394;2022-09-01T12:51:45;3.72;;;3.53;;
17310;SDS011;8773;43.300;0.394;2022-09-01T12:54:14;4.43;;;3.95;;
17310;SDS011;8773;43.300;0.394;2022-09-01T12:56:46;4.13;;;3.83;;
17310;SDS011;8773;43.300;0.394;2022-09-01T12:59:20;4.07;;;3.85;;
17310;SDS011;8773;43.300;0.394;2022-09-01T13:07:57;4.32;;;4.05;;
17310;SDS011;8773;43.300;0.394;2022-09-01T13:10:30;4.07;;;3.67;;
17310;SDS011;8773;43.300;0.394;2022-09-01T13:12:59;4.30;;;4.00;;
17310;SDS011;8773;43.300;0.394;2022-09-01T13:15:28;4.22;;;3.92;;
17310;SDS011;8773;43.300;0.394;2022-09-01T13:18:00;4.25;;;3.97;;
17310;SDS011;8773;43.300;0.394;2022-09-01T13:20:28;4.10;;;3.70;;
17310;SDS011;8773;43.300;0.394;2022-09-01T13:22:57;4.55;;;4.25;;
17310;SDS011;8773;43.300;0.394;2022-09-01T13:25:25;4.40;;;4.10;;
17310;SDS011;8773;43.300;0.394;2022-09-01T13:27:53;4.40;;;4.10;;
17310;SDS011;8773;43.300;0.394;2022-09-01T13:30:22;3.95;;;3.70;;
17310;SDS011;8773;43.300;0.394;2022-09-01T13:32:53;4.13;;;3.72;;
17310;SDS011;8773;43.300;0.394;2022-09-01T13:35:43;3.83;;;3.53;;
17310;SDS011;8773;43.300;0.394;2022-09-01T13:38:11;4.18;;;3.88;;
17310;SDS011;8773;43.300;0.394;2022-09-01T13:40:42;3.70;;;3.50;;
17310;SDS011;8773;43.300;0.394;2022-09-01T13:43:12;3.55;;;3.35;;
17310;SDS011;8773;43.300;0.394;2022-09-01T13:45:41;3.80;;;3.50;;
17310;SDS011;8773;43.300;0.394;2022-09-01T13:48:10;4.10;;;3.90;;
17310;SDS011;8773;43.300;0.394;2022-09-01T13:50:41;3.72;;;3.53;;
17310;SDS011;8773;43.300;0.394;2022-09-01T13:53:32;4.15;;;3.85;;
17310;SDS011;8773;43.300;0.394;2022-09-01T13:56:00;3.72;;;3.42;;
17310;SDS011;8773;43.300;0.394;2022-09-01T13:58:28;3.90;;;3.60;;
17310;SDS011;8773;43.300;0.394;2022-09-01T14:00:57;3.97;;;3.40;;
17310;SDS011;8773;43.300;0.394;2022-09-01T14:03:25;3.45;;;3.25;;
17310;SDS011;8773;43.300;0.394;2022-09-01T14:05:56;3.85;;;3.65;;
17310;SDS011;8773;43.300;0.394;2022-09-01T14:08:24;3.78;;;3.50;;
17310;SDS011;8773;43.300;0.394;2022-09-01T14:10:52;3.63;;;3.42;;
17310;SDS011;8773;43.300;0.394;2022-09-01T14:13:21;3.55;;;3.35;;
17310;SDS011;8773;43.300;0.394;2022-09-01T14:15:51;3.75;;;3.47;;
17310;SDS011;8773;43.300;0.394;2022-09-01T14:18:20;3.72;;;3.42;;
17310;SDS011;8773;43.300;0.394;2022-09-01T14:20:49;4.00;;;3.60;;
17310;SDS011;8773;43.300;0.394;2022-09-01T14:59:25;3.85;;;3.60;;
17310;SDS011;8773;43.300;0.394;2022-09-01T15:01:54;4.00;;;3.70;;
17310;SDS011;8773;43.300;0.394;2022-09-01T15:04:22;4.40;;;4.00;;
17310;SDS011;8773;43.300;0.394;2022-09-01T15:06:50;3.90;;;3.72;;
17310;SDS011;8773;43.300;0.394;2022-09-01T15:09:18;4.57;;;3.53;;
17310;SDS011;8773;43.300;0.394;2022-09-01T15:11:47;3.80;;;3.50;;
17310;SDS011;8773;43.300;0.394;2022-09-01T15:14:15;3.85;;;3.60;;
17310;SDS011;8773;43.300;0.394;2022-09-01T15:16:44;3.78;;;3.50;;
17310;SDS011;8773;43.300;0.394;2022-09-01T15:19:12;3.78;;;3.58;;
17310;SDS011;8773;43.300;0.394;2022-09-01T15:21:41;3.55;;;3.38;;
17310;SDS011;8773;43.300;0.394;2022-09-01T15:24:10;3.85;;;3.55;;
17310;SDS011;8773;43.300;0.394;2022-09-01T15:26:38;3.90;;;3.60;;
17310;SDS011;8773;43.300;0.394;2022-09-01T15:29:07;3.80;;;3.50;;
17310;SDS011;8773;43.300;0.394;2022-09-01T15:31:38;3.95;;;3.72;;
17310;SDS011;8773;43.300;0.394;2022-09-01T15:34:08;4.30;;;3.95;;
17310;SDS011;8773;43.300;0.394;2022-09-01T15:36:38;3.83;;;3.63;;
17310;SDS011;8773;43.300;0.394;2022-09-01T15:39:09;4.22;;;3.85;;
17310;SDS011;8773;43.300;0.394;2022-09-01T15:41:38;4.20;;;3.90;;
17310;SDS011;8773;43.300;0.394;2022-09-01T15:44:06;3.90;;;3.70;;
17310;SDS011;8773;43.300;0.394;2022-09-01T15:46:36;4.25;;;3.92;;
17310;SDS011;8773;43.300;0.394;2022-09-01T15:49:08;4.75;;;4.40;;
17310;SDS011;8773;43.300;0.394;2022-09-01T15:51:37;3.75;;;3.50;;
17310;SDS011;8773;43.300;0.394;2022-09-01T15:54:07;4.50;;;4.30;;
17310;SDS011;8773;43.300;0.394;2022-09-01T15:56:37;4.10;;;3.80;;
17310;SDS011;8773;43.300;0.394;2022-09-01T15:59:05;4.07;;;3.88;;
17310;SDS011;8773;43.300;0.394;2022-09-01T16:01:35;4.22;;;4.03;;
17310;SDS011;8773;43.300;0.394;2022-09-01T16:04:08;4.40;;;4.10;;
17310;SDS011;8773;43.300;0.394;2022-09-01T16:06:56;4.00;;;3.80;;
17310;SDS011;8773;43.300;0.394;2022-09-01T16:09:24;4.38;;;3.97;;
17310;SDS011;8773;43.300;0.394;2022-09-01T16:11:52;3.95;;;3.70;;
17310;SDS011;8773;43.300;0.394;2022-09-01T16:14:20;4.68;;;4.38;;
17310;SDS011;8773;43.300;0.394;2022-09-01T16:16:51;4.65;;;4.35;;
17310;SDS011;8773;43.300;0.394;2022-09-01T16:19:28;4.10;;;3.80;;
17310;SDS011;8773;43.300;0.394;2022-09-01T16:22:03;4.15;;;3.85;;
17310;SDS011;8773;43.300;0.394;2022-09-01T16:24:39;4.63;;;4.18;;
17310;SDS011;8773;43.300;0.394;2022-09-01T16:27:11;4.00;;;3.45;;
17310;SDS011;8773;43.300;0.394;2022-09-01T16:29:43;3.85;;;3.55;;
17310;SDS011;8773;43.300;0.394;2022-09-01T16:32:14;3.97;;;3.67;;
17310;SDS011;8773;43.300;0.394;2022-09-01T16:34:45;3.80;;;3.60;;
17310;SDS011;8773;43.300;0.394;2022-09-01T16:37:17;4.35;;;4.05;;
17310;SDS011;8773;43.300;0.394;2022-09-01T16:39:53;4.03;;;3.83;;
17310;SDS011;8773;43.300;0.394;2022-09-01T16:42:37;4.32;;;4.13;;